sensor_id;sensor_type;location;lat;lon;timestamp;pressure;altitude;pressure_sealevel;temperature;humidity
45731;BME280;31440;48.584;13.460;2023-02-23T00:01:50;96462.41;;;5.40;100.00
45731;BME280;31440;48.584;13.460;2023-02-23T00:04:55;96469.78;;;5.53;100.00
45731;BME280;31440;48.584;13.460;2023-02-23T00:08:01;96464.97;;;5.04;100.00
45731;BME280;31440;48.584;13.460;2023-02-23T00:11:08;96471.56;;;7.60;100.00
45731;BME280;31440;48.584;13.460;2023-02-23T00:14:13;96456.28;;;5.44;100.00
45731;BME280;31440;48.584;13.460;2023-02-23T00:17:17;96479.31;;;5.16;100.00
45731;BME280;31440;48.584;13.460;2023-02-23T00:20:24;96477.50;;;5.55;100.00
45731;BME280;31440;48.584;13.460;2023-02-23T00:23:31;96473.81;;;4.94;100.00
45731;BME280;31440;48.584;13.460;2023-02-23T00:26:38;96470.91;;;5.08;100.00
45731;BME280;31440;48.584;13.460;2023-02-23T00:29:43;96476.91;;;5.08;100.00
45731;BME280;31440;48.584;13.460;2023-02-23T00:32:49;96456.81;;;4.85;100.00
45731;BME280;31440;48.584;13.460;2023-02-23T00:35:54;96442.38;;;4.78;100.00
45731;BME280;31440;48.584;13.460;2023-02-23T00:39:03;96479.59;;;4.63;100.00
45731;BME280;31440;48.584;13.460;2023-02-23T00:42:22;96481.88;;;4.79;100.00
45731;BME280;31440;48.584;13.460;2023-02-23T00:45:28;96478.16;;;4.90;100.00
45731;BME280;31440;48.584;13.460;2023-02-23T00:48:34;96482.88;;;4.72;100.00
45731;BME280;31440;48.584;13.460;2023-02-23T00:51:39;96484.19;;;4.49;100.00
45731;BME280;31440;48.584;13.460;2023-02-23T00:54:44;96478.13;;;4.53;100.00
45731;BME280;31440;48.584;13.460;2023-02-23T00:57:50;96474.53;;;4.60;100.00
45731;BME280;31440;48.584;13.460;2023-02-23T01:00:56;96470.66;;;4.41;100.00
45731;BME280;31440;48.584;13.460;2023-02-23T01:04:03;96461.34;;;4.34;100.00
45731;BME280;31440;48.584;13.460;2023-02-23T01:07:08;96468.41;;;4.26;100.00
45731;BME280;31440;48.584;13.460;2023-02-23T01:10:16;96471.31;;;4.49;100.00
45731;BME280;31440;48.584;13.460;2023-02-23T01:13:24;96462.81;;;4.46;100.00
45731;BME280;31440;48.584;13.460;2023-02-23T01:16:33;96474.03;;;4.43;100.00
45731;BME280;31440;48.584;13.460;2023-02-23T01:19:38;96463.63;;;4.48;100.00
45731;BME280;31440;48.584;13.460;2023-02-23T01:22:44;96445.28;;;4.23;100.00
45731;BME280;31440;48.584;13.460;2023-02-23T01:25:49;96465.34;;;4.47;100.00
45731;BME280;31440;48.584;13.460;2023-02-23T01:29:00;96464.81;;;4.33;100.00
45731;BME280;31440;48.584;13.460;2023-02-23T01:32:05;96466.09;;;4.54;100.00
45731;BME280;31440;48.584;13.460;2023-02-23T01:35:10;96466.56;;;4.71;100.00
45731;BME280;31440;48.584;13.460;2023-02-23T01:38:15;96459.66;;;4.73;100.00
45731;BME280;31440;48.584;13.460;2023-02-23T01:41:20;96427.03;;;4.34;100.00
45731;BME280;31440;48.584;13.460;2023-02-23T01:47:34;96467.28;;;3.93;100.00
45731;BME280;31440;48.584;13.460;2023-02-23T01:53:48;96461.69;;;4.59;100.00
45731;BME280;31440;48.584;13.460;2023-02-23T01:56:59;96448.31;;;4.43;100.00
45731;BME280;31440;48.584;13.460;2023-02-23T02:00:06;96449.56;;;3.76;100.00
45731;BME280;31440;48.584;13.460;2023-02-23T02:04:05;96455.91;;;3.57;100.00
45731;BME280;31440;48.584;13.460;2023-02-23T02:06:47;96466.31;;;3.52;100.00
45731;BME280;31440;48.584;13.460;2023-02-23T02:09:57;96452.78;;;3.40;100.00
45731;BME280;31440;48.584;13.460;2023-02-23T02:13:28;96459.44;;;4.01;100.00
45731;BME280;31440;48.584;13.460;2023-02-23T02:16:48;96443.97;;;4.02;100.00
45731;BME280;31440;48.584;13.460;2023-02-23T02:31:03;96460.28;;;3.53;100.00
45731;BME280;31440;48.584;13.460;2023-02-23T02:37:54;96456.25;;;3.86;100.00
45731;BME280;31440;48.584;13.460;2023-02-23T02:41:15;96454.88;;;3.69;100.00
45731;BME280;31440;48.584;13.460;2023-02-23T02:44:29;96453.84;;;3.77;100.00
45731;BME280;31440;48.584;13.460;2023-02-23T02:50:55;96456.13;;;3.45;100.00
45731;BME280;31440;48.584;13.460;2023-02-23T02:54:08;96439.03;;;3.42;100.00
45731;BME280;31440;48.584;13.460;2023-02-23T02:57:17;96447.19;;;3.67;100.00
45731;BME280;31440;48.584;13.460;2023-02-23T03:00:38;96455.34;;;3.40;100.00
45731;BME280;31440;48.584;13.460;2023-02-23T03:04:23;96451.91;;;3.42;100.00
45731;BME280;31440;48.584;13.460;2023-02-23T03:11:38;96464.00;;;3.37;100.00
45731;BME280;31440;48.584;13.460;2023-02-23T03:15:33;96453.56;;;3.45;100.00
45731;BME280;31440;48.584;13.460;2023-02-23T03:19:10;96468.91;;;3.49;100.00
45731;BME280;31440;48.584;13.460;2023-02-23T03:22:49;96467.91;;;3.58;100.00
45731;BME280;31440;48.584;13.460;2023-02-23T03:26:40;96471.06;;;3.23;100.00
45731;BME280;31440;48.584;13.460;2023-02-23T03:33:43;96472.00;;;3.19;100.00
45731;BME280;31440;48.584;13.460;2023-02-23T03:37:27;96485.25;;;2.90;100.00
45731;BME280;31440;48.584;13.460;2023-02-23T03:40:53;96476.47;;;3.06;100.00
45731;BME280;31440;48.584;13.460;2023-02-23T03:44:23;96479.94;;;3.02;100.00
45731;BME280;31440;48.584;13.460;2023-02-23T03:47:50;96481.72;;;3.00;100.00
45731;BME280;31440;48.584;13.460;2023-02-23T03:51:17;96472.41;;;2.92;100.00
45731;BME280;31440;48.584;13.460;2023-02-23T03:54:49;96470.44;;;3.09;100.00
45731;BME280;31440;48.584;13.460;2023-02-23T03:58:19;96478.78;;;2.65;100.00
45731;BME280;31440;48.584;13.460;2023-02-23T04:01:46;96482.78;;;2.84;100.00
45731;BME280;31440;48.584;13.460;2023-02-23T04:05:15;96468.41;;;2.71;100.00
45731;BME280;31440;48.584;13.460;2023-02-23T04:08:40;96475.47;;;3.16;100.00
45731;BME280;31440;48.584;13.460;2023-02-23T04:12:10;96470.50;;;3.03;100.00
45731;BME280;31440;48.584;13.460;2023-02-23T04:15:50;96481.94;;;2.83;100.00
45731;BME280;31440;48.584;13.460;2023-02-23T04:18:57;96481.94;;;2.83;100.00
45731;BME280;31440;48.584;13.460;2023-02-23T04:22:01;96497.50;;;2.71;100.00
45731;BME280;31440;48.584;13.460;2023-02-23T04:25:06;96490.53;;;2.82;100.00
45731;BME280;31440;48.584;13.460;2023-02-23T04:28:12;96483.59;;;2.87;100.00
45731;BME280;31440;48.584;13.460;2023-02-23T04:31:17;96490.56;;;2.79;100.00
45731;BME280;31440;48.584;13.460;2023-02-23T04:34:22;96480.88;;;2.98;100.00
45731;BME280;31440;48.584;13.460;2023-02-23T04:37:27;96453.00;;;2.71;100.00
45731;BME280;31440;48.584;13.460;2023-02-23T04:40:32;96486.91;;;2.94;100.00
45731;BME280;31440;48.584;13.460;2023-02-23T04:43:36;96479.50;;;2.74;100.00
45731;BME280;31440;48.584;13.460;2023-02-23T04:46:41;96470.06;;;2.76;100.00
45731;BME280;31440;48.584;13.460;2023-02-23T04:49:45;96470.97;;;2.72;100.00
45731;BME280;31440;48.584;13.460;2023-02-23T04:52:50;96495.00;;;2.67;100.00
45731;BME280;31440;48.584;13.460;2023-02-23T04:55:56;96476.41;;;2.48;100.00
45731;BME280;31440;48.584;13.460;2023-02-23T04:59:01;96475.72;;;2.37;100.00
45731;BME280;31440;48.584;13.460;2023-02-23T05:02:05;96490.91;;;2.53;100.00
45731;BME280;31440;48.584;13.460;2023-02-23T05:05:10;96481.34;;;2.65;100.00
45731;BME280;31440;48.584;13.460;2023-02-23T05:08:15;96449.50;;;2.13;100.00
45731;BME280;31440;48.584;13.460;2023-02-23T05:11:20;96484.13;;;2.48;100.00
45731;BME280;31440;48.584;13.460;2023-02-23T05:14:24;96496.16;;;2.44;100.00
45731;BME280;31440;48.584;13.460;2023-02-23T05:17:30;96485.94;;;2.41;100.00
45731;BME280;31440;48.584;13.460;2023-02-23T05:20:35;96477.94;;;2.66;100.00
45731;BME280;31440;48.584;13.460;2023-02-23T05:23:40;96495.75;;;2.75;100.00
45731;BME280;31440;48.584;13.460;2023-02-23T05:26:45;96477.78;;;2.75;100.00
45731;BME280;31440;48.584;13.460;2023-02-23T05:29:50;96474.31;;;2.77;100.00
45731;BME280;31440;48.584;13.460;2023-02-23T05:32:54;96491.31;;;2.86;100.00
45731;BME280;31440;48.584;13.460;2023-02-23T05:35:59;96476.34;;;2.56;100.00
45731;BME280;31440;48.584;13.460;2023-02-23T05:39:07;96465.50;;;2.34;100.00
45731;BME280;31440;48.584;13.460;2023-02-23T05:42:12;96485.78;;;2.52;100.00
45731;BME280;31440;48.584;13.460;2023-02-23T05:45:17;96488.25;;;2.60;100.00
45731;BME280;31440;48.584;13.460;2023-02-23T05:48:22;96465.41;;;2.41;100.00
45731;BME280;31440;48.584;13.460;2023-02-23T05:51:28;96491.72;;;2.57;100.00
45731;BME280;31440;48.584;13.460;2023-02-23T05:54:33;96492.03;;;2.31;100.00
45731;BME280;31440;48.584;13.460;2023-02-23T05:57:38;96478.31;;;2.35;100.00
45731;BME280;31440;48.584;13.460;2023-02-23T06:00:44;96477.03;;;2.67;100.00
45731;BME280;31440;48.584;13.460;2023-02-23T06:03:49;96486.34;;;2.74;100.00
45731;BME280;31440;48.584;13.460;2023-02-23T06:06:54;96489.97;;;2.61;100.00
45731;BME280;31440;48.584;13.460;2023-02-23T06:09:59;96481.41;;;2.60;100.00
45731;BME280;31440;48.584;13.460;2023-02-23T06:13:05;96505.94;;;2.82;100.00
45731;BME280;31440;48.584;13.460;2023-02-23T06:16:09;96492.38;;;2.71;100.00
45731;BME280;31440;48.584;13.460;2023-02-23T06:19:14;96496.59;;;2.75;100.00
45731;BME280;31440;48.584;13.460;2023-02-23T06:22:19;96503.38;;;2.81;100.00
45731;BME280;31440;48.584;13.460;2023-02-23T06:25:23;96497.38;;;2.83;100.00
45731;BME280;31440;48.584;13.460;2023-02-23T06:28:28;96516.88;;;2.95;100.00
45731;BME280;31440;48.584;13.460;2023-02-23T06:31:33;96506.63;;;2.94;100.00
45731;BME280;31440;48.584;13.460;2023-02-23T06:34:38;96517.91;;;2.82;100.00
45731;BME280;31440;48.584;13.460;2023-02-23T06:37:43;96518.38;;;3.08;100.00
45731;BME280;31440;48.584;13.460;2023-02-23T06:40:48;96526.34;;;2.92;100.00
45731;BME280;31440;48.584;13.460;2023-02-23T06:43:53;96522.94;;;2.88;100.00
45731;BME280;31440;48.584;13.460;2023-02-23T06:46:57;96528.47;;;3.20;100.00
45731;BME280;31440;48.584;13.460;2023-02-23T06:50:02;96538.00;;;3.14;100.00
45731;BME280;31440;48.584;13.460;2023-02-23T06:53:07;96530.56;;;2.96;100.00
45731;BME280;31440;48.584;13.460;2023-02-23T06:56:12;96532.28;;;2.95;100.00
45731;BME280;31440;48.584;13.460;2023-02-23T06:59:17;96540.22;;;2.78;100.00
45731;BME280;31440;48.584;13.460;2023-02-23T07:02:22;96543.41;;;2.94;100.00
45731;BME280;31440;48.584;13.460;2023-02-23T07:05:26;96533.66;;;3.19;100.00
45731;BME280;31440;48.584;13.460;2023-02-23T07:08:32;96540.38;;;3.26;100.00
45731;BME280;31440;48.584;13.460;2023-02-23T07:11:38;96522.66;;;3.09;100.00
45731;BME280;31440;48.584;13.460;2023-02-23T07:14:42;96549.06;;;3.19;100.00
45731;BME280;31440;48.584;13.460;2023-02-23T07:17:47;96544.81;;;3.16;100.00
45731;BME280;31440;48.584;13.460;2023-02-23T07:20:52;96557.50;;;3.27;100.00
45731;BME280;31440;48.584;13.460;2023-02-23T07:23:58;96545.47;;;3.29;100.00
45731;BME280;31440;48.584;13.460;2023-02-23T07:27:02;96529.78;;;3.47;100.00
45731;BME280;31440;48.584;13.460;2023-02-23T07:30:08;96511.06;;;3.38;100.00
45731;BME280;31440;48.584;13.460;2023-02-23T07:33:13;96544.28;;;3.51;100.00
45731;BME280;31440;48.584;13.460;2023-02-23T07:36:18;96533.19;;;3.48;100.00
45731;BME280;31440;48.584;13.460;2023-02-23T07:39:22;96503.53;;;3.29;100.00
45731;BME280;31440;48.584;13.460;2023-02-23T07:42:27;96550.94;;;3.65;100.00
45731;BME280;31440;48.584;13.460;2023-02-23T07:45:32;96550.88;;;3.68;100.00
45731;BME280;31440;48.584;13.460;2023-02-23T07:48:37;96553.25;;;3.80;100.00
45731;BME280;31440;48.584;13.460;2023-02-23T07:51:42;96544.66;;;3.79;100.00
45731;BME280;31440;48.584;13.460;2023-02-23T07:54:46;96519.13;;;3.70;100.00
45731;BME280;31440;48.584;13.460;2023-02-23T07:57:51;96545.34;;;3.92;100.00
45731;BME280;31440;48.584;13.460;2023-02-23T08:00:56;96557.09;;;4.08;100.00
45731;BME280;31440;48.584;13.460;2023-02-23T08:04:01;96548.44;;;4.11;100.00
45731;BME280;31440;48.584;13.460;2023-02-23T08:07:06;96537.91;;;4.24;100.00
45731;BME280;31440;48.584;13.460;2023-02-23T08:10:11;96555.28;;;4.58;100.00
45731;BME280;31440;48.584;13.460;2023-02-23T08:13:16;96566.53;;;4.52;100.00
45731;BME280;31440;48.584;13.460;2023-02-23T08:16:21;96544.63;;;4.32;100.00
45731;BME280;31440;48.584;13.460;2023-02-23T08:19:26;96538.25;;;4.51;100.00
45731;BME280;31440;48.584;13.460;2023-02-23T08:22:31;96543.78;;;4.74;100.00
45731;BME280;31440;48.584;13.460;2023-02-23T08:25:52;96555.59;;;4.41;100.00
45731;BME280;31440;48.584;13.460;2023-02-23T08:28:58;96559.06;;;4.39;100.00
45731;BME280;31440;48.584;13.460;2023-02-23T08:32:03;96566.84;;;4.36;100.00
45731;BME280;31440;48.584;13.460;2023-02-23T08:35:08;96555.25;;;4.59;100.00
45731;BME280;31440;48.584;13.460;2023-02-23T08:38:13;96555.94;;;5.08;100.00
45731;BME280;31440;48.584;13.460;2023-02-23T08:41:20;96567.72;;;5.18;100.00
45731;BME280;31440;48.584;13.460;2023-02-23T08:44:25;96550.50;;;5.57;100.00
45731;BME280;31440;48.584;13.460;2023-02-23T08:47:30;96565.38;;;5.47;100.00
45731;BME280;31440;48.584;13.460;2023-02-23T08:50:37;96565.75;;;5.30;100.00
45731;BME280;31440;48.584;13.460;2023-02-23T08:53:42;96574.91;;;5.79;100.00
45731;BME280;31440;48.584;13.460;2023-02-23T08:56:46;96553.53;;;5.39;100.00
45731;BME280;31440;48.584;13.460;2023-02-23T08:59:51;96543.97;;;5.79;100.00
45731;BME280;31440;48.584;13.460;2023-02-23T09:02:56;96559.00;;;5.62;100.00
45731;BME280;31440;48.584;13.460;2023-02-23T09:06:10;96580.06;;;5.79;100.00
45731;BME280;31440;48.584;13.460;2023-02-23T09:09:17;96553.75;;;5.66;100.00
45731;BME280;31440;48.584;13.460;2023-02-23T09:12:21;96559.97;;;5.92;100.00
45731;BME280;31440;48.584;13.460;2023-02-23T09:15:26;96562.75;;;5.84;100.00
45731;BME280;31440;48.584;13.460;2023-02-23T09:18:30;96574.31;;;5.70;100.00
45731;BME280;31440;48.584;13.460;2023-02-23T09:21:36;96536.16;;;5.47;100.00
45731;BME280;31440;48.584;13.460;2023-02-23T09:24:40;96560.59;;;5.68;100.00
45731;BME280;31440;48.584;13.460;2023-02-23T09:27:45;96568.09;;;5.77;100.00
45731;BME280;31440;48.584;13.460;2023-02-23T09:30:50;96575.03;;;5.75;100.00
45731;BME280;31440;48.584;13.460;2023-02-23T09:33:54;96571.88;;;5.97;100.00
45731;BME280;31440;48.584;13.460;2023-02-23T09:37:03;96585.56;;;6.01;100.00
45731;BME280;31440;48.584;13.460;2023-02-23T09:40:09;96582.56;;;6.18;100.00
45731;BME280;31440;48.584;13.460;2023-02-23T09:43:24;96576.72;;;6.44;100.00
45731;BME280;31440;48.584;13.460;2023-02-23T09:49:44;96592.09;;;6.48;100.00
45731;BME280;31440;48.584;13.460;2023-02-23T09:52:55;96576.50;;;6.53;100.00
45731;BME280;31440;48.584;13.460;2023-02-23T09:56:09;96575.00;;;6.77;100.00
45731;BME280;31440;48.584;13.460;2023-02-23T09:59:16;96579.47;;;6.39;100.00
45731;BME280;31440;48.584;13.460;2023-02-23T10:02:37;96561.63;;;6.61;100.00
45731;BME280;31440;48.584;13.460;2023-02-23T10:05:47;96574.53;;;6.92;100.00
45731;BME280;31440;48.584;13.460;2023-02-23T10:16:04;96571.75;;;6.68;100.00
45731;BME280;31440;48.584;13.460;2023-02-23T10:19:28;96579.13;;;6.82;100.00
45731;BME280;31440;48.584;13.460;2023-02-23T10:22:36;96578.31;;;6.80;100.00
45731;BME280;31440;48.584;13.460;2023-02-23T10:25:47;96561.75;;;6.87;100.00
45731;BME280;31440;48.584;13.460;2023-02-23T10:28:54;96559.47;;;7.06;100.00
45731;BME280;31440;48.584;13.460;2023-02-23T10:32:40;96575.00;;;7.06;100.00
45731;BME280;31440;48.584;13.460;2023-02-23T10:35:45;96567.09;;;6.81;100.00
45731;BME280;31440;48.584;13.460;2023-02-23T10:38:50;96575.72;;;7.11;100.00
45731;BME280;31440;48.584;13.460;2023-02-23T10:41:57;96578.09;;;7.17;100.00
45731;BME280;31440;48.584;13.460;2023-02-23T10:45:12;96560.00;;;7.17;100.00
45731;BME280;31440;48.584;13.460;2023-02-23T10:48:33;96578.66;;;6.97;100.00
45731;BME280;31440;48.584;13.460;2023-02-23T10:51:41;96554.78;;;7.19;100.00
45731;BME280;31440;48.584;13.460;2023-02-23T10:54:48;96570.91;;;7.55;100.00
45731;BME280;31440;48.584;13.460;2023-02-23T10:58:02;96560.88;;;7.16;100.00
45731;BME280;31440;48.584;13.460;2023-02-23T11:01:08;96567.00;;;7.14;100.00
45731;BME280;31440;48.584;13.460;2023-02-23T11:04:28;96549.47;;;7.23;100.00
45731;BME280;31440;48.584;13.460;2023-02-23T11:07:33;96551.41;;;7.71;100.00
45731;BME280;31440;48.584;13.460;2023-02-23T11:10:38;96566.50;;;7.30;100.00
45731;BME280;31440;48.584;13.460;2023-02-23T11:13:45;96571.81;;;7.54;100.00
45731;BME280;31440;48.584;13.460;2023-02-23T11:16:50;96554.75;;;7.48;100.00
45731;BME280;31440;48.584;13.460;2023-02-23T11:20:01;96567.91;;;7.40;100.00
45731;BME280;31440;48.584;13.460;2023-02-23T11:23:16;96542.22;;;7.89;100.00
45731;BME280;31440;48.584;13.460;2023-02-23T11:26:39;96542.75;;;7.18;100.00
45731;BME280;31440;48.584;13.460;2023-02-23T11:29:45;96533.72;;;7.59;100.00
45731;BME280;31440;48.584;13.460;2023-02-23T11:32:59;96566.59;;;7.27;100.00
45731;BME280;31440;48.584;13.460;2023-02-23T11:36:25;96551.91;;;7.00;100.00
45731;BME280;31440;48.584;13.460;2023-02-23T11:39:31;96551.84;;;7.31;100.00
45731;BME280;31440;48.584;13.460;2023-02-23T11:42:35;96539.50;;;7.39;100.00
45731;BME280;31440;48.584;13.460;2023-02-23T11:45:45;96558.31;;;7.44;100.00
45731;BME280;31440;48.584;13.460;2023-02-23T11:49:05;96532.59;;;7.12;100.00
45731;BME280;31440;48.584;13.460;2023-02-23T11:52:17;96538.66;;;7.66;100.00
45731;BME280;31440;48.584;13.460;2023-02-23T11:55:24;96534.44;;;7.36;100.00
45731;BME280;31440;48.584;13.460;2023-02-23T12:01:42;96521.53;;;7.34;100.00
45731;BME280;31440;48.584;13.460;2023-02-23T12:05:17;96539.50;;;7.67;100.00
45731;BME280;31440;48.584;13.460;2023-02-23T12:08:38;96527.34;;;7.43;100.00
45731;BME280;31440;48.584;13.460;2023-02-23T12:11:49;96515.00;;;8.28;100.00
45731;BME280;31440;48.584;13.460;2023-02-23T12:15:29;96521.28;;;8.46;100.00
45731;BME280;31440;48.584;13.460;2023-02-23T12:18:43;96521.84;;;8.04;100.00
45731;BME280;31440;48.584;13.460;2023-02-23T12:22:03;96515.47;;;8.39;100.00
45731;BME280;31440;48.584;13.460;2023-02-23T12:25:23;96506.53;;;8.95;100.00
45731;BME280;31440;48.584;13.460;2023-02-23T12:28:35;96505.94;;;8.88;100.00
45731;BME280;31440;48.584;13.460;2023-02-23T12:31:56;96508.50;;;8.41;100.00
45731;BME280;31440;48.584;13.460;2023-02-23T12:35:13;96506.72;;;8.90;100.00
45731;BME280;31440;48.584;13.460;2023-02-23T12:38:45;96505.72;;;8.71;100.00
45731;BME280;31440;48.584;13.460;2023-02-23T12:42:04;96510.72;;;9.21;100.00
45731;BME280;31440;48.584;13.460;2023-02-23T12:45:20;96500.38;;;8.97;100.00
45731;BME280;31440;48.584;13.460;2023-02-23T12:48:42;96496.28;;;8.92;100.00
45731;BME280;31440;48.584;13.460;2023-02-23T12:51:49;96503.97;;;8.71;100.00
45731;BME280;31440;48.584;13.460;2023-02-23T12:54:56;96498.47;;;9.02;100.00
45731;BME280;31440;48.584;13.460;2023-02-23T13:01:45;96498.47;;;9.90;100.00
45731;BME280;31440;48.584;13.460;2023-02-23T13:08:29;96500.94;;;10.33;100.00
45731;BME280;31440;48.584;13.460;2023-02-23T13:12:02;96486.59;;;11.58;100.00
45731;BME280;31440;48.584;13.460;2023-02-23T13:19:32;96479.69;;;12.76;97.51
45731;BME280;31440;48.584;13.460;2023-02-23T13:22:57;96481.00;;;13.16;92.84
45731;BME280;31440;48.584;13.460;2023-02-23T13:26:36;96476.94;;;13.10;91.15
45731;BME280;31440;48.584;13.460;2023-02-23T13:29:44;96483.22;;;12.24;92.75
45731;BME280;31440;48.584;13.460;2023-02-23T13:32:50;96480.00;;;11.85;99.24
45731;BME280;31440;48.584;13.460;2023-02-23T13:35:55;96462.06;;;12.31;94.08
45731;BME280;31440;48.584;13.460;2023-02-23T13:42:45;96476.94;;;11.60;100.00
45731;BME280;31440;48.584;13.460;2023-02-23T13:52:40;96478.94;;;11.36;100.00
45731;BME280;31440;48.584;13.460;2023-02-23T13:55:49;96478.09;;;11.35;100.00
45731;BME280;31440;48.584;13.460;2023-02-23T13:59:04;96475.84;;;10.90;100.00
45731;BME280;31440;48.584;13.460;2023-02-23T14:05:27;96474.53;;;10.42;100.00
45731;BME280;31440;48.584;13.460;2023-02-23T14:08:36;96474.78;;;10.75;100.00
45731;BME280;31440;48.584;13.460;2023-02-23T14:11:47;96461.16;;;10.51;100.00
45731;BME280;31440;48.584;13.460;2023-02-23T14:14:52;96462.88;;;10.32;100.00
45731;BME280;31440;48.584;13.460;2023-02-23T14:18:01;96470.78;;;10.49;100.00
45731;BME280;31440;48.584;13.460;2023-02-23T14:21:30;96468.88;;;10.14;100.00
45731;BME280;31440;48.584;13.460;2023-02-23T14:24:36;96454.00;;;10.36;100.00
45731;BME280;31440;48.584;13.460;2023-02-23T14:27:43;96448.03;;;10.15;100.00
45731;BME280;31440;48.584;13.460;2023-02-23T14:34:19;96458.13;;;10.01;100.00
45731;BME280;31440;48.584;13.460;2023-02-23T14:37:39;96471.22;;;10.39;100.00
45731;BME280;31440;48.584;13.460;2023-02-23T14:40:47;96467.59;;;10.43;100.00
45731;BME280;31440;48.584;13.460;2023-02-23T14:43:59;96466.28;;;10.14;100.00
45731;BME280;31440;48.584;13.460;2023-02-23T14:47:14;96442.81;;;10.15;100.00
45731;BME280;31440;48.584;13.460;2023-02-23T14:50:30;96465.56;;;9.90;100.00
45731;BME280;31440;48.584;13.460;2023-02-23T14:53:36;96455.88;;;10.14;100.00
45731;BME280;31440;48.584;13.460;2023-02-23T14:56:46;96443.34;;;10.03;100.00
45731;BME280;31440;48.584;13.460;2023-02-23T14:59:59;96450.72;;;10.33;100.00
45731;BME280;31440;48.584;13.460;2023-02-23T15:03:06;96453.34;;;9.92;100.00
45731;BME280;31440;48.584;13.460;2023-02-23T15:06:16;96449.78;;;9.53;100.00
45731;BME280;31440;48.584;13.460;2023-02-23T15:09:31;96458.50;;;9.72;100.00
45731;BME280;31440;48.584;13.460;2023-02-23T15:12:37;96462.50;;;10.01;100.00
45731;BME280;31440;48.584;13.460;2023-02-23T15:15:44;96436.31;;;10.05;100.00
45731;BME280;31440;48.584;13.460;2023-02-23T15:22:36;96447.22;;;9.73;100.00
45731;BME280;31440;48.584;13.460;2023-02-23T15:25:41;96442.19;;;9.90;100.00
45731;BME280;31440;48.584;13.460;2023-02-23T15:28:48;96427.19;;;9.55;100.00
45731;BME280;31440;48.584;13.460;2023-02-23T15:31:54;96442.09;;;9.49;100.00
45731;BME280;31440;48.584;13.460;2023-02-23T15:34:59;96448.34;;;9.45;100.00
45731;BME280;31440;48.584;13.460;2023-02-23T15:38:07;96435.94;;;9.52;100.00
45731;BME280;31440;48.584;13.460;2023-02-23T15:41:35;96444.19;;;9.20;100.00
45731;BME280;31440;48.584;13.460;2023-02-23T15:44:40;96430.59;;;9.57;100.00
45731;BME280;31440;48.584;13.460;2023-02-23T15:47:51;96440.19;;;9.55;100.00
45731;BME280;31440;48.584;13.460;2023-02-23T15:50:57;96425.31;;;9.16;100.00
45731;BME280;31440;48.584;13.460;2023-02-23T15:54:06;96442.94;;;9.08;100.00
45731;BME280;31440;48.584;13.460;2023-02-23T15:57:20;96425.44;;;9.13;100.00
45731;BME280;31440;48.584;13.460;2023-02-23T16:00:36;96439.00;;;8.98;100.00
45731;BME280;31440;48.584;13.460;2023-02-23T16:03:45;96438.13;;;8.75;100.00
45731;BME280;31440;48.584;13.460;2023-02-23T16:07:14;96442.28;;;8.79;100.00
45731;BME280;31440;48.584;13.460;2023-02-23T16:10:23;96448.06;;;8.64;100.00
45731;BME280;31440;48.584;13.460;2023-02-23T16:13:28;96432.88;;;8.32;100.00
45731;BME280;31440;48.584;13.460;2023-02-23T16:16:34;96431.56;;;8.43;100.00
45731;BME280;31440;48.584;13.460;2023-02-23T16:19:38;96427.13;;;8.47;100.00
45731;BME280;31440;48.584;13.460;2023-02-23T16:22:45;96430.28;;;8.55;100.00
45731;BME280;31440;48.584;13.460;2023-02-23T16:25:52;96430.28;;;8.32;100.00
45731;BME280;31440;48.584;13.460;2023-02-23T16:28:59;96428.91;;;8.45;100.00
45731;BME280;31440;48.584;13.460;2023-02-23T16:32:19;96438.47;;;7.95;100.00
45731;BME280;31440;48.584;13.460;2023-02-23T16:35:32;96440.41;;;7.63;100.00
45731;BME280;31440;48.584;13.460;2023-02-23T16:41:45;96428.38;;;7.87;100.00
45731;BME280;31440;48.584;13.460;2023-02-23T16:44:51;96418.34;;;7.78;100.00
45731;BME280;31440;48.584;13.460;2023-02-23T16:47:55;96430.44;;;8.02;100.00
45731;BME280;31440;48.584;13.460;2023-02-23T16:51:19;96440.03;;;7.74;100.00
45731;BME280;31440;48.584;13.460;2023-02-23T16:54:26;96444.66;;;7.66;100.00
45731;BME280;31440;48.584;13.460;2023-02-23T16:57:38;96458.16;;;7.74;100.00
45731;BME280;31440;48.584;13.460;2023-02-23T17:00:44;96461.16;;;7.62;100.00
45731;BME280;31440;48.584;13.460;2023-02-23T17:03:48;96450.63;;;7.42;100.00
45731;BME280;31440;48.584;13.460;2023-02-23T17:06:56;96448.00;;;7.15;100.00
45731;BME280;31440;48.584;13.460;2023-02-23T17:10:06;96450.22;;;7.27;100.00
45731;BME280;31440;48.584;13.460;2023-02-23T17:13:20;96454.25;;;7.36;100.00
45731;BME280;31440;48.584;13.460;2023-02-23T17:16:24;96444.00;;;7.33;100.00
45731;BME280;31440;48.584;13.460;2023-02-23T17:19:29;96449.06;;;7.10;100.00
45731;BME280;31440;48.584;13.460;2023-02-23T17:22:34;96459.50;;;7.33;100.00
45731;BME280;31440;48.584;13.460;2023-02-23T17:25:39;96455.31;;;7.30;100.00
45731;BME280;31440;48.584;13.460;2023-02-23T17:28:43;96452.50;;;7.36;100.00
45731;BME280;31440;48.584;13.460;2023-02-23T17:31:49;96461.97;;;7.37;100.00
45731;BME280;31440;48.584;13.460;2023-02-23T17:34:54;96472.75;;;7.50;100.00
45731;BME280;31440;48.584;13.460;2023-02-23T17:37:59;96454.34;;;7.33;100.00
45731;BME280;31440;48.584;13.460;2023-02-23T17:41:06;96467.84;;;7.43;100.00
45731;BME280;31440;48.584;13.460;2023-02-23T17:44:11;96461.88;;;7.40;100.00
45731;BME280;31440;48.584;13.460;2023-02-23T17:47:16;96470.56;;;7.38;100.00
45731;BME280;31440;48.584;13.460;2023-02-23T17:50:21;96456.22;;;7.29;100.00
45731;BME280;31440;48.584;13.460;2023-02-23T17:53:29;96451.47;;;6.88;100.00
45731;BME280;31440;48.584;13.460;2023-02-23T17:56:34;96463.72;;;6.81;100.00